• Join FlightAware (Why Join?)
  • Login
  • US Flag 
03:07AM EDT


 

Airport Tracker/Info


-or-


 

Live Flight TrackerFlight Track Log ✈ TCF3444 ✈ 28-Apr-2013 ✈ KSLC - KDEN

Flight Track Log - Related Links

Times and Time Zones

All times are in EDT time to prevent confusion due to time zone crossing. See the TCF3444 flight status page for this flight to view local times or setup timezone preferences in your user account.

Time Position Orientation Groundspeed Altitude Reporting Facility
EDT Latitude Longitude Course Direction KTS MPH feet Rate Location/Type
02:56PM 40.8075 -111.9619 146° Southeast 168 193 5,000  Level Salt Lake Center
02:57PM 40.8631 -111.9714 353° North 198 228 6,700 1,920 Climbing Salt Lake Center
02:58PM 40.9264 -111.9794 355° North 253 291 9,100 2,700 Climbing Salt Lake Center
02:59PM 41.1333 -111.8765 90° East  Level FlightAware Approximate
02:59PM 40.9803 -111.9211 39° Northeast 296 341 12,200  Level Salt Lake Center
03:00PM 41.1023 -111.7595 159° South  Level FlightAware Approximate
03:00PM 40.9561 -111.7878 103° East 338 389 14,200  Level Salt Lake Center
03:01PM 41.0148 -111.6882 146° Southeast  Level FlightAware Approximate
03:01PM 40.9331 -111.6556 103° East 373 429 16,400  Level Salt Lake Center
03:02PM 40.9225 -111.5150 96° East 388 447 18,700 2,160 Climbing Salt Lake Center
03:03PM 40.9111 -111.3669 96° East 406 467 20,900 2,100 Climbing Salt Lake Center
03:04PM 40.8983 -111.2161 96° East 414 476 23,100 2,160 Climbing Salt Lake Center
03:05PM 40.8836 -111.0306 96° East 424 488 25,400 1,860 Climbing Salt Lake Center
03:06PM 40.8692 -110.8717 97° East 434 499 27,000 1,440 Climbing Salt Lake Center
03:07PM 40.8558 -110.7083 96° East 443 510 28,400 1,320 Climbing Salt Lake Center
03:08PM 40.8428 -110.5289 95° East 453 521 29,800 1,140 Climbing Salt Lake Center
03:09PM 40.8286 -110.3692 97° East 458 527 30,800 1,020 Climbing Salt Lake Center
03:10PM 40.8103 -110.1769 97° East 466 536 32,000 960 Climbing Salt Lake Center
03:11PM 40.7958 -110.0078 96° East 480 552 32,800 480 Climbing Salt Lake Center
03:12PM 40.7811 -109.8419 97° East 479 551 33,000 60 Climbing Salt Lake Center
03:13PM 40.7625 -109.6481 97° East 477 549 33,000  Level Salt Lake Center
03:14PM 40.7469 -109.4822 97° East 476 548 33,000  Level Salt Lake Center
03:15PM 40.7283 -109.2914 97° East 472 543 33,000  Level Salt Lake Center
03:16PM 40.7136 -109.1358 97° East 469 540 33,000  Level Salt Lake Center
03:17PM 40.6958 -108.9469 97° East 468 539 33,000  Level Salt Lake Center
03:18PM 40.6792 -108.7836 98° East 473 544 33,000  Level Salt Lake Center
03:19PM 40.6664 -108.6594 98° East 473 544 33,000  Level Denver Center
03:19PM 40.6594 -108.5914 98° East 475 547 33,000  Level Salt Lake Center
03:20PM 40.6422 -108.4275 98° East 476 548 33,000  Level Salt Lake Center
03:21PM 40.6289 -108.3017 98° East 474 545 33,000  Level Denver Center
03:21PM 40.6225 -108.2358 97° East 476 548 33,000  Level Salt Lake Center
03:22PM 40.6083 -108.1094 98° East 474 545 33,000  Level Denver Center
03:23PM 40.5911 -107.9450 98° East 473 544 33,000  Level Denver Center
03:24PM 40.5728 -107.7819 98° East 471 542 33,000  Level Denver Center
03:25PM 40.5525 -107.5917 98° East 470 541 33,000  Level Denver Center
03:26PM 40.5344 -107.4289 98° East 469 540 33,000  Level Denver Center
03:28PM 40.5133 -107.2028 97° East 469 540 33,000  Level Denver Center
03:29PM 40.5069 -107.0442 93° East 472 543 33,000  Level Denver Center
03:30PM 40.4972 -106.8742 94° East 468 539 33,000  Level Denver Center
03:31PM 40.4872 -106.7067 94° East 460 529 33,000  Level Denver Center
03:32PM 40.4775 -106.5378 94° East 460 529 33,000  Level Denver Center
03:33PM 40.4656 -106.3478 95° East 462 532 33,000 -540 Level Denver Center
03:34PM 40.4547 -106.1547 94° East 463 533 32,000 -1,680 Descending Denver Center
03:35PM 40.4439 -105.9872 95° East 458 527 29,600 -2,160 Descending Denver Center
03:36PM 40.4189 -105.8283 102° East 441 507 27,200 -2,220 Descending Denver Center
03:37PM 40.3903 -105.6497 102° East 426 490 24,600 -2,100 Descending Denver Center
03:38PM 40.3619 -105.5028 104° East 413 475 22,900 -1,800 Descending Denver Center
03:39PM 40.2919 -105.3664 124° Southeast 397 457 21,000 -1,680 Descending Denver Center
03:40PM 40.2161 -105.2244 125° Southeast 384 442 19,100 -1,560 Descending Denver Center
03:41PM 40.1572 -105.1114 124° Southeast 379 436 17,500 -1,560 Descending Denver Center
03:42PM 40.0931 -104.9919 125° Southeast 374 430 15,900 -1,260 Descending Denver Center
03:43PM 40.0378 -104.8889 125° Southeast 344 396 14,900 -840 Descending Denver Center
03:44PM 39.9869 -104.7942 125° Southeast 293 337 14,200 -1,020 Descending Denver Center
03:46PM 39.9572 -104.7067 114° Southeast 272 313 12,800 -1,260 Descending Denver Center
03:47PM 39.9561 -104.6111 91° East 262 302 11,700 -1,200 Descending Denver Center
03:47PM 39.9500 -104.5333 96° East 255 293 10,700 -1,680 Descending Denver TRACON
03:48PM 39.9333 -104.4500 105° East 257 296 8,700 -1,740 Descending Denver TRACON
03:49PM 39.8833 -104.4500 180° South 240 276 7,600 -1,260 Descending Denver TRACON
03:50PM 39.8747 -104.4889 254° West 220 253 7,100 -1,020 Descending Denver Center
03:50PM 39.8833 -104.5333 284° West 203 234 6,600 -1,020 Descending Denver TRACON